createdAt,value
2023-01-13T00:00:51.941Z,92216.34
2023-01-13T00:03:37.822Z,92220.44
2023-01-13T00:06:23.814Z,92219.66
2023-01-13T00:09:09.510Z,92211.84
2023-01-13T00:11:55.373Z,92197.66
2023-01-13T00:14:41.328Z,92208.59
2023-01-13T00:17:27.118Z,92212.47
2023-01-13T00:20:12.939Z,92211.69
2023-01-13T00:22:58.824Z,92207.00
2023-01-13T00:25:44.716Z,92200.38
2023-01-13T00:28:30.619Z,92197.28
2023-01-13T00:31:16.499Z,92187.06
2023-01-13T00:34:02.763Z,92179.91
2023-01-13T00:36:48.611Z,92174.63
2023-01-13T00:39:34.542Z,92179.94
2023-01-13T00:42:20.307Z,92174.38
2023-01-13T00:45:06.143Z,92176.34
2023-01-13T00:47:52.059Z,92162.16
2023-01-13T00:50:38.070Z,92158.19
2023-01-13T00:53:23.915Z,92153.28
2023-01-13T00:56:09.843Z,92154.34
2023-01-13T00:58:55.730Z,92150.91
2023-01-13T01:01:41.833Z,92155.28
2023-01-13T01:04:28.117Z,92156.00
2023-01-13T01:07:14.068Z,92148.50
2023-01-13T01:09:59.911Z,92155.16
2023-01-13T01:12:45.712Z,92153.19
2023-01-13T01:15:31.598Z,92150.19
2023-01-13T01:18:17.555Z,92159.16
2023-01-13T01:21:03.486Z,92155.56
2023-01-13T01:23:49.551Z,92164.03
2023-01-13T01:26:35.511Z,92173.56
2023-01-13T01:29:21.327Z,92176.53
2023-01-13T01:32:07.212Z,92180.47
2023-01-13T01:34:52.980Z,92171.06
2023-01-13T01:37:40.780Z,92180.94
2023-01-13T01:40:26.675Z,92184.69
2023-01-13T01:43:12.546Z,92177.78
2023-01-13T01:45:58.381Z,92184.16
2023-01-13T01:48:44.208Z,92183.81
2023-01-13T01:51:29.976Z,92182.00
2023-01-13T01:54:15.900Z,92178.56
2023-01-13T01:57:01.769Z,92175.81
2023-01-13T01:59:47.599Z,92176.72
2023-01-13T02:02:33.679Z,92166.94
2023-01-13T02:05:19.942Z,92157.19
2023-01-13T02:08:06.098Z,92149.66
2023-01-13T02:10:52.068Z,92156.31
2023-01-13T02:13:37.933Z,92150.53
2023-01-13T02:16:23.815Z,92148.13
2023-01-13T02:19:09.681Z,92150.03
2023-01-13T02:21:55.491Z,92147.56
2023-01-13T02:24:41.569Z,92143.28
2023-01-13T02:27:27.372Z,92141.09
2023-01-13T02:30:13.274Z,92131.25
2023-01-13T02:32:59.103Z,92126.56
2023-01-13T02:35:44.948Z,92118.97
2023-01-13T02:38:30.817Z,92127.03
2023-01-13T02:41:16.677Z,92119.69
2023-01-13T02:44:02.551Z,92117.22
2023-01-13T02:46:48.577Z,92119.28
2023-01-13T02:49:34.364Z,92121.72
2023-01-13T02:52:20.374Z,92112.28
2023-01-13T02:55:06.344Z,92102.75
2023-01-13T02:57:52.173Z,92107.81
2023-01-13T03:00:37.944Z,92105.34
2023-01-13T03:03:23.805Z,92104.41
2023-01-13T03:06:11.706Z,92100.63
2023-01-13T03:08:57.642Z,92099.19
2023-01-13T03:11:43.344Z,92105.09
2023-01-13T03:14:29.252Z,92109.22
2023-01-13T03:17:15.201Z,92104.41
2023-01-13T03:20:03.030Z,92101.81
2023-01-13T03:22:48.999Z,92095.81
2023-01-13T03:25:34.802Z,92083.81
2023-01-13T03:28:20.456Z,92087.28
2023-01-13T03:31:06.380Z,92090.16
2023-01-13T03:33:52.292Z,92086.59
2023-01-13T03:36:38.232Z,92086.16
2023-01-13T03:39:24.167Z,92088.59
2023-01-13T03:42:09.977Z,92089.94
2023-01-13T03:44:55.846Z,92086.31
2023-01-13T03:47:41.724Z,92087.75
2023-01-13T03:50:27.621Z,92089.59
2023-01-13T03:53:13.324Z,92086.72
2023-01-13T03:55:59.072Z,92097.25
2023-01-13T03:58:45.037Z,92094.47
2023-01-13T04:01:30.987Z,92078.47
2023-01-13T04:04:17.032Z,92085.38
2023-01-13T04:07:02.973Z,92092.34
2023-01-13T04:09:48.759Z,92080.84
2023-01-13T04:12:34.544Z,92078.66
2023-01-13T04:15:20.506Z,92074.06
2023-01-13T04:18:06.352Z,92086.00
2023-01-13T04:20:52.322Z,92086.66
2023-01-13T04:23:38.337Z,92085.72
2023-01-13T04:26:24.206Z,92088.63
2023-01-13T04:29:10.154Z,92081.75
2023-01-13T04:31:56.071Z,92092.88
2023-01-13T04:34:41.899Z,92102.06
2023-01-13T04:37:28.052Z,92099.50
2023-01-13T04:40:13.682Z,92098.19
2023-01-13T04:42:59.540Z,92087.59
2023-01-13T04:45:45.473Z,92082.94
2023-01-13T04:48:31.337Z,92096.44
2023-01-13T04:51:17.288Z,92097.97
2023-01-13T04:54:03.030Z,92099.31
2023-01-13T04:56:48.861Z,92102.69
2023-01-13T04:59:34.768Z,92099.16
2023-01-13T05:02:20.596Z,92109.06
2023-01-13T05:05:06.458Z,92098.00
2023-01-13T05:07:54.295Z,92102.13
2023-01-13T05:10:39.971Z,92107.63
2023-01-13T05:13:25.854Z,92084.72
2023-01-13T05:16:11.702Z,92094.97
2023-01-13T05:18:57.685Z,92092.09
2023-01-13T05:21:43.609Z,92114.59
2023-01-13T05:24:29.410Z,92100.94
2023-01-13T05:27:15.187Z,92101.94
2023-01-13T05:30:00.956Z,92118.34
2023-01-13T05:32:47.821Z,92101.69
2023-01-13T05:35:33.572Z,92094.63
2023-01-13T05:38:19.370Z,92092.03
2023-01-13T05:41:05.251Z,92100.16
2023-01-13T05:43:51.288Z,92109.50
2023-01-13T05:46:37.222Z,92101.47
2023-01-13T05:49:23.063Z,92097.69
2023-01-13T05:52:08.809Z,92101.25
2023-01-13T05:54:54.692Z,92100.16
2023-01-13T05:57:40.598Z,92095.47
2023-01-13T06:00:26.460Z,92098.75
2023-01-13T06:03:12.309Z,92104.53
2023-01-13T06:05:58.227Z,92101.13
2023-01-13T06:08:44.181Z,92099.84
2023-01-13T06:11:30.186Z,92093.75
2023-01-13T06:14:15.902Z,92091.91
2023-01-13T06:17:01.720Z,92089.94
2023-01-13T06:19:47.766Z,92101.56
2023-01-13T06:22:33.473Z,92084.50
2023-01-13T06:25:19.248Z,92077.84
2023-01-13T06:28:05.058Z,92092.34
2023-01-13T06:30:50.904Z,92094.16
2023-01-13T06:33:36.810Z,92096.03
2023-01-13T06:36:22.682Z,92089.72
2023-01-13T06:39:08.573Z,92097.09
2023-01-13T06:41:54.470Z,92101.25
2023-01-13T06:44:40.364Z,92097.50
2023-01-13T06:47:26.401Z,92105.34
2023-01-13T06:50:12.306Z,92114.53
2023-01-13T06:53:00.057Z,92120.53
2023-01-13T06:55:46.082Z,92129.13
2023-01-13T06:58:31.857Z,92120.41
2023-01-13T07:01:17.839Z,92129.88
2023-01-13T07:04:04.061Z,92125.81
2023-01-13T07:06:49.987Z,92124.44
2023-01-13T07:09:35.933Z,92131.06
2023-01-13T07:12:21.801Z,92131.81
2023-01-13T07:15:09.508Z,92121.38
2023-01-13T07:17:55.417Z,92130.19
2023-01-13T07:20:41.311Z,92135.53
2023-01-13T07:23:27.219Z,92140.44
2023-01-13T07:26:13.124Z,92150.84
2023-01-13T07:28:58.803Z,92141.88
2023-01-13T07:31:44.857Z,92147.50
2023-01-13T07:34:30.786Z,92146.53
2023-01-13T07:37:16.637Z,92140.94
2023-01-13T07:40:02.662Z,92139.13
2023-01-13T07:42:48.443Z,92146.84
2023-01-13T07:45:34.440Z,92146.94
2023-01-13T07:48:20.430Z,92139.53
2023-01-13T07:51:06.457Z,92143.72
2023-01-13T07:53:52.283Z,92141.53
2023-01-13T07:56:38.271Z,92151.44
2023-01-13T07:59:24.094Z,92144.56
2023-01-13T08:02:10.336Z,92153.06
2023-01-13T08:04:56.547Z,92151.19
2023-01-13T08:07:42.499Z,92150.09
2023-01-13T08:10:28.506Z,92145.56
2023-01-13T08:13:14.352Z,92138.41
2023-01-13T08:16:00.388Z,92153.13
2023-01-13T08:18:46.274Z,92164.22
2023-01-13T08:21:32.237Z,92163.47
2023-01-13T08:24:18.326Z,92166.31
2023-01-13T08:27:04.165Z,92172.94
2023-01-13T08:29:50.032Z,92179.13
2023-01-13T08:32:36.129Z,92188.19
2023-01-13T08:35:22.073Z,92183.75
2023-01-13T08:38:08.087Z,92184.72
2023-01-13T08:40:53.857Z,92187.88
2023-01-13T08:43:39.807Z,92190.59
2023-01-13T08:46:25.772Z,92194.22
2023-01-13T08:49:11.578Z,92210.75
2023-01-13T08:51:57.447Z,92205.44
2023-01-13T08:54:43.475Z,92222.38
2023-01-13T08:57:29.329Z,92219.53
2023-01-13T09:00:17.450Z,92228.59
2023-01-13T09:03:03.609Z,92231.31
2023-01-13T09:05:49.301Z,92242.97
2023-01-13T09:08:35.398Z,92240.78
2023-01-13T09:11:21.287Z,92244.28
2023-01-13T09:14:07.173Z,92249.81
2023-01-13T09:16:53.177Z,92251.53
2023-01-13T09:19:39.129Z,92256.56
2023-01-13T09:22:24.990Z,92258.38
2023-01-13T09:25:10.958Z,92250.16
2023-01-13T09:27:56.861Z,92246.31
2023-01-13T09:30:42.815Z,92232.81
2023-01-13T09:33:28.718Z,92240.81
2023-01-13T09:36:14.641Z,92251.47
2023-01-13T09:39:00.663Z,92252.47
2023-01-13T09:41:46.501Z,92258.13
2023-01-13T09:44:32.271Z,92257.19
2023-01-13T09:47:18.211Z,92250.59
2023-01-13T09:50:04.048Z,92251.19
2023-01-13T09:52:50.030Z,92257.53
2023-01-13T09:55:35.858Z,92253.31
2023-01-13T09:58:21.972Z,92259.78
2023-01-13T10:01:08.056Z,92249.00
2023-01-13T10:03:53.977Z,92255.41
2023-01-13T10:06:39.854Z,92267.25
2023-01-13T10:09:25.606Z,92267.25
2023-01-13T10:12:11.451Z,92265.13
2023-01-13T10:14:57.495Z,92265.56
2023-01-13T10:17:45.356Z,92263.31
2023-01-13T10:20:31.302Z,92260.69
2023-01-13T10:23:17.236Z,92252.00
2023-01-13T10:26:05.282Z,92249.53
2023-01-13T10:28:51.386Z,92250.41
2023-01-13T10:31:37.453Z,92253.16
2023-01-13T10:34:23.241Z,92248.53
2023-01-13T10:37:09.121Z,92240.38
2023-01-13T10:39:54.911Z,92244.84
2023-01-13T10:42:40.953Z,92234.88
2023-01-13T10:45:26.889Z,92230.41
2023-01-13T10:48:12.665Z,92230.28
2023-01-13T10:50:58.596Z,92224.59
2023-01-13T10:53:44.565Z,92219.81
2023-01-13T10:56:30.521Z,92218.81
2023-01-13T10:59:16.502Z,92218.41
2023-01-13T11:02:04.050Z,92216.28
2023-01-13T11:04:54.221Z,92214.31
2023-01-13T11:07:40.268Z,92217.03
2023-01-13T11:10:26.279Z,92231.75
2023-01-13T11:13:12.190Z,92234.38
2023-01-13T11:15:58.184Z,92231.84
2023-01-13T11:18:46.163Z,92231.50
2023-01-13T11:21:32.052Z,92227.44
2023-01-13T11:24:17.967Z,92230.81
2023-01-13T11:27:04.068Z,92239.41
2023-01-13T11:29:50.417Z,92236.19
2023-01-13T11:32:36.240Z,92236.16
2023-01-13T11:35:22.110Z,92230.63
2023-01-13T11:38:08.153Z,92236.31
2023-01-13T11:40:54.310Z,92245.25
2023-01-13T11:43:40.135Z,92242.09
2023-01-13T11:46:25.969Z,92243.13
2023-01-13T11:49:11.905Z,92246.28
2023-01-13T11:51:57.657Z,92243.81
2023-01-13T11:54:43.760Z,92255.69
2023-01-13T11:57:29.602Z,92264.91
2023-01-13T12:00:15.592Z,92257.69
2023-01-13T12:03:01.523Z,92247.09
2023-01-13T12:05:47.378Z,92260.31
2023-01-13T12:08:33.285Z,92256.75
2023-01-13T12:11:19.128Z,92254.91
2023-01-13T12:14:04.966Z,92263.50
2023-01-13T12:16:50.966Z,92261.94
2023-01-13T12:19:37.091Z,92270.03
2023-01-13T12:22:22.989Z,92278.25
2023-01-13T12:25:08.972Z,92271.56
2023-01-13T12:27:54.818Z,92277.72
2023-01-13T12:30:40.803Z,92276.97
2023-01-13T12:33:26.777Z,92263.50
2023-01-13T12:36:12.552Z,92269.88
2023-01-13T12:38:58.363Z,92279.91
2023-01-13T12:41:44.248Z,92282.38
2023-01-13T12:44:30.161Z,92274.34
2023-01-13T12:47:16.026Z,92273.25
2023-01-13T12:50:01.892Z,92278.66
2023-01-13T12:52:47.912Z,92272.66
2023-01-13T12:55:35.855Z,92272.56
2023-01-13T12:58:21.733Z,92275.63
2023-01-13T13:01:07.681Z,92285.88
2023-01-13T13:03:53.829Z,92283.31
2023-01-13T13:06:39.764Z,92298.56
2023-01-13T13:09:25.594Z,92288.72
2023-01-13T13:12:11.455Z,92301.59
2023-01-13T13:14:57.588Z,92299.91
2023-01-13T13:17:43.875Z,92305.34
2023-01-13T13:20:29.911Z,92305.22
2023-01-13T13:23:15.832Z,92301.75
2023-01-13T13:26:01.582Z,92310.03
2023-01-13T13:28:47.345Z,92306.91
2023-01-13T13:31:33.302Z,92302.88
2023-01-13T13:34:19.140Z,92295.19
2023-01-13T13:37:05.169Z,92277.25
2023-01-13T13:39:51.165Z,92275.84
2023-01-13T13:42:36.992Z,92274.53
2023-01-13T13:45:22.814Z,92270.84
2023-01-13T13:48:08.622Z,92288.63
2023-01-13T13:50:54.622Z,92282.91
2023-01-13T13:53:40.701Z,92287.81
2023-01-13T13:56:26.451Z,92287.69
2023-01-13T13:59:12.486Z,92302.25
2023-01-13T14:01:58.490Z,92297.19
2023-01-13T14:04:45.482Z,92293.50
2023-01-13T14:07:31.403Z,92293.28
2023-01-13T14:10:17.236Z,92296.41
2023-01-13T14:13:03.194Z,92302.09
2023-01-13T14:15:49.166Z,92292.06
2023-01-13T14:18:37.139Z,92284.28
2023-01-13T14:21:23.041Z,92287.59
2023-01-13T14:24:09.049Z,92274.41
2023-01-13T14:26:55.017Z,92277.88
2023-01-13T14:29:41.105Z,92281.91
2023-01-13T14:32:26.993Z,92278.31
2023-01-13T14:35:12.924Z,92290.16
2023-01-13T14:37:58.806Z,92297.34
2023-01-13T14:40:44.535Z,92296.66
2023-01-13T14:43:30.669Z,92302.53
2023-01-13T14:46:16.634Z,92300.66
2023-01-13T14:49:02.505Z,92317.56
2023-01-13T14:51:48.456Z,92322.06
2023-01-13T14:54:34.375Z,92331.94
2023-01-13T14:57:20.171Z,92331.75
2023-01-13T15:00:06.347Z,92346.09
2023-01-13T15:02:52.508Z,92341.75
2023-01-13T15:05:38.418Z,92340.31
2023-01-13T15:08:24.267Z,92348.13
2023-01-13T15:11:10.190Z,92362.34
2023-01-13T15:13:56.152Z,92368.22
2023-01-13T15:16:41.911Z,92376.25
2023-01-13T15:19:27.774Z,92377.16
2023-01-13T15:22:13.793Z,92380.41
2023-01-13T15:24:59.612Z,92387.75
2023-01-13T15:27:45.555Z,92387.22
2023-01-13T15:30:31.447Z,92397.97
2023-01-13T15:33:17.354Z,92406.44
2023-01-13T15:36:03.258Z,92415.81
2023-01-13T15:38:49.231Z,92419.84
2023-01-13T15:41:35.169Z,92419.66
2023-01-13T15:44:21.087Z,92421.06
2023-01-13T15:47:06.983Z,92420.84
2023-01-13T15:49:53.024Z,92433.91
2023-01-13T15:52:38.849Z,92431.41
2023-01-13T15:55:24.657Z,92430.66
2023-01-13T15:58:10.521Z,92434.13
2023-01-13T16:00:56.467Z,92425.66
2023-01-13T16:03:42.715Z,92436.88
2023-01-13T16:06:28.791Z,92434.25
2023-01-13T16:09:14.573Z,92426.63
2023-01-13T16:12:00.467Z,92446.97
2023-01-13T16:14:46.367Z,92433.50
2023-01-13T16:17:32.255Z,92440.13
2023-01-13T16:20:18.143Z,92444.03
2023-01-13T16:23:03.939Z,92438.13
2023-01-13T16:25:49.756Z,92455.34
2023-01-13T16:28:35.692Z,92461.03
2023-01-13T16:31:21.419Z,92456.00
2023-01-13T16:34:07.275Z,92455.59
2023-01-13T16:36:53.134Z,92457.97
2023-01-13T16:39:38.938Z,92462.97
2023-01-13T16:42:24.964Z,92471.63
2023-01-13T16:45:10.751Z,92479.16
2023-01-13T16:47:56.686Z,92486.34
2023-01-13T16:50:42.562Z,92490.69
2023-01-13T16:53:28.502Z,92505.28
2023-01-13T16:56:14.395Z,92503.22
2023-01-13T16:59:00.164Z,92499.16
2023-01-13T17:01:46.186Z,92494.47
2023-01-13T17:04:32.364Z,92493.25
2023-01-13T17:07:20.191Z,92502.44
2023-01-13T17:10:06.163Z,92507.41
2023-01-13T17:12:51.951Z,92507.75
2023-01-13T17:15:37.744Z,92505.22
2023-01-13T17:18:24.175Z,92510.41
2023-01-13T17:21:09.899Z,92517.81
2023-01-13T17:23:55.801Z,92506.91
2023-01-13T17:26:41.642Z,92524.19
2023-01-13T17:29:27.502Z,92534.13
2023-01-13T17:32:13.511Z,92537.00
2023-01-13T17:34:59.351Z,92540.00
2023-01-13T17:37:45.408Z,92535.84
2023-01-13T17:40:31.298Z,92529.56
2023-01-13T17:43:17.077Z,92538.31
2023-01-13T17:46:03.379Z,92541.31
2023-01-13T17:48:49.469Z,92549.06
2023-01-13T17:51:35.259Z,92535.78
2023-01-13T17:54:21.246Z,92543.94
2023-01-13T17:57:07.088Z,92546.53
2023-01-13T17:59:52.820Z,92547.59
2023-01-13T18:02:38.686Z,92545.53
2023-01-13T18:05:24.489Z,92557.16
2023-01-13T18:08:10.196Z,92576.66
2023-01-13T18:10:56.091Z,92569.28
2023-01-13T18:13:41.862Z,92577.34
2023-01-13T18:16:30.444Z,92582.16
2023-01-13T18:19:16.852Z,92590.22
2023-01-13T18:22:02.752Z,92594.22
2023-01-13T18:24:48.719Z,92592.34
2023-01-13T18:27:34.633Z,92599.81
2023-01-13T18:30:20.373Z,92598.47
2023-01-13T18:33:06.265Z,92600.41
2023-01-13T18:35:51.947Z,92602.31
2023-01-13T18:38:37.868Z,92608.69
2023-01-13T18:41:23.847Z,92617.22
2023-01-13T18:44:09.792Z,92621.31
2023-01-13T18:46:57.723Z,92624.19
2023-01-13T18:49:43.731Z,92631.66
2023-01-13T18:52:29.577Z,92635.75
2023-01-13T18:55:15.624Z,92634.72
2023-01-13T18:58:01.528Z,92645.63
2023-01-13T19:00:47.512Z,92650.41
2023-01-13T19:03:33.475Z,92649.88
2023-01-13T19:06:19.323Z,92667.38
2023-01-13T19:09:05.346Z,92665.66
2023-01-13T19:11:51.190Z,92650.91
2023-01-13T19:14:36.995Z,92648.72
2023-01-13T19:17:22.922Z,92649.44
2023-01-13T19:20:08.730Z,92659.84
2023-01-13T19:22:54.700Z,92658.34
2023-01-13T19:25:40.793Z,92664.75
2023-01-13T19:28:26.607Z,92671.25
2023-01-13T19:31:12.480Z,92677.81
2023-01-13T19:33:58.304Z,92676.84
2023-01-13T19:36:46.249Z,92674.22
2023-01-13T19:39:32.216Z,92669.25
2023-01-13T19:42:18.198Z,92663.88
2023-01-13T19:45:04.051Z,92664.72
2023-01-13T19:47:49.983Z,92667.03
2023-01-13T19:50:35.984Z,92666.69
2023-01-13T19:53:21.830Z,92672.59
2023-01-13T19:56:07.709Z,92667.84
2023-01-13T19:58:53.515Z,92667.00
2023-01-13T20:01:39.754Z,92667.28
2023-01-13T20:04:25.774Z,92674.63
2023-01-13T20:07:11.686Z,92683.19
2023-01-13T20:09:57.580Z,92676.41
2023-01-13T20:12:43.368Z,92675.13
2023-01-13T20:15:29.227Z,92665.16
2023-01-13T20:18:15.075Z,92658.16
2023-01-13T20:21:00.829Z,92675.03
2023-01-13T20:23:46.624Z,92678.00
2023-01-13T20:26:32.405Z,92674.69
2023-01-13T20:29:18.253Z,92685.59
2023-01-13T20:32:04.077Z,92694.97
2023-01-13T20:34:49.998Z,92691.84
2023-01-13T20:37:36.020Z,92692.44
2023-01-13T20:40:21.951Z,92707.50
2023-01-13T20:43:07.802Z,92708.13
2023-01-13T20:45:54.680Z,92712.53
2023-01-13T20:48:40.456Z,92718.34
2023-01-13T20:51:26.137Z,92713.13
2023-01-13T20:54:12.018Z,92722.63
2023-01-13T20:56:57.852Z,92701.56
2023-01-13T20:59:43.739Z,92700.84
2023-01-13T21:02:29.449Z,92708.91
2023-01-13T21:05:17.405Z,92702.38
2023-01-13T21:08:03.374Z,92710.53
2023-01-13T21:10:49.152Z,92713.38
2023-01-13T21:13:35.039Z,92713.63
2023-01-13T21:16:21.050Z,92723.66
2023-01-13T21:19:06.880Z,92707.03
2023-01-13T21:21:52.875Z,92718.91
2023-01-13T21:24:38.712Z,92701.78
2023-01-13T21:27:24.631Z,92699.84
2023-01-13T21:30:10.622Z,92700.19
2023-01-13T21:32:56.454Z,92696.13
2023-01-13T21:35:42.310Z,92699.38
2023-01-13T21:38:29.866Z,92700.72
2023-01-13T21:41:16.049Z,92685.31
2023-01-13T21:44:01.891Z,92689.81
2023-01-13T21:46:47.645Z,92696.25
2023-01-13T21:49:33.419Z,92691.97
2023-01-13T21:52:19.389Z,92691.75
2023-01-13T21:55:05.218Z,92687.03
2023-01-13T21:57:51.175Z,92697.19
2023-01-13T22:00:37.297Z,92704.25
2023-01-13T22:03:23.514Z,92709.63
2023-01-13T22:06:09.497Z,92714.88
2023-01-13T22:08:55.516Z,92708.16
2023-01-13T22:11:41.296Z,92710.63
2023-01-13T22:14:27.125Z,92712.16
2023-01-13T22:17:13.023Z,92715.41
2023-01-13T22:19:58.948Z,92710.56
2023-01-13T22:22:44.780Z,92701.47
2023-01-13T22:25:30.742Z,92722.09
2023-01-13T22:28:16.692Z,92718.72
2023-01-13T22:31:02.595Z,92717.59
2023-01-13T22:33:48.425Z,92721.66
2023-01-13T22:36:34.389Z,92711.09
2023-01-13T22:39:20.049Z,92715.47
2023-01-13T22:42:05.995Z,92706.28
2023-01-13T22:44:52.003Z,92710.28
2023-01-13T22:47:37.884Z,92717.19
2023-01-13T22:50:23.612Z,92719.34
2023-01-13T22:53:09.429Z,92713.38
2023-01-13T22:55:55.407Z,92722.31
2023-01-13T22:58:41.505Z,92732.94
2023-01-13T23:01:27.236Z,92727.00
2023-01-13T23:04:13.117Z,92723.72
2023-01-13T23:07:01.123Z,92722.09
2023-01-13T23:09:46.892Z,92713.66
2023-01-13T23:12:32.758Z,92709.41
2023-01-13T23:15:18.662Z,92712.16
2023-01-13T23:18:04.660Z,92696.22
2023-01-13T23:20:50.384Z,92698.50
2023-01-13T23:23:36.167Z,92709.88
2023-01-13T23:26:22.065Z,92693.16
2023-01-13T23:29:07.961Z,92684.06
2023-01-13T23:31:53.758Z,92685.28
2023-01-13T23:34:39.620Z,92682.31
2023-01-13T23:37:25.314Z,92686.03
2023-01-13T23:40:11.344Z,92681.81
2023-01-13T23:42:57.418Z,92681.81
2023-01-13T23:45:43.289Z,92679.00
2023-01-13T23:48:29.274Z,92674.22
2023-01-13T23:51:15.070Z,92672.13
2023-01-13T23:54:00.959Z,92669.91
2023-01-13T23:56:46.901Z,92668.78
2023-01-13T23:59:32.811Z,92661.53
